createdAt,value
2018-12-30T00:01:47.317Z,12.00
2018-12-30T00:04:26.857Z,10.37
2018-12-30T00:07:07.100Z,11.47
2018-12-30T00:09:46.308Z,13.23
2018-12-30T00:12:13.730Z,12.53
2018-12-30T00:15:01.891Z,11.83
2018-12-30T00:17:48.457Z,10.80
2018-12-30T00:20:34.965Z,11.23
2018-12-30T00:23:21.639Z,12.20
2018-12-30T00:25:48.429Z,10.93
2018-12-30T00:28:35.331Z,11.97
2018-12-30T00:31:21.827Z,11.97
2018-12-30T00:34:08.385Z,11.53
2018-12-30T00:36:54.973Z,12.33
2018-12-30T00:39:41.875Z,11.20
2018-12-30T00:42:28.601Z,11.00
2018-12-30T00:45:16.924Z,11.63
2018-12-30T00:48:03.880Z,10.10
2018-12-30T00:53:23.441Z,11.43
2018-12-30T00:56:10.121Z,11.97
2018-12-30T00:58:56.657Z,12.63
2018-12-30T01:01:24.124Z,9.60
2018-12-30T01:04:04.252Z,10.37
2018-12-30T01:06:44.640Z,12.30
2018-12-30T01:09:24.587Z,13.73
2018-12-30T01:11:51.583Z,10.27
2018-12-30T01:14:18.657Z,12.23
2018-12-30T01:16:45.933Z,12.70
2018-12-30T01:19:12.801Z,12.50
2018-12-30T01:21:59.221Z,11.90
2018-12-30T01:24:45.869Z,13.87
2018-12-30T01:27:32.978Z,11.87
2018-12-30T01:30:19.493Z,9.47
2018-12-30T01:32:46.388Z,11.13
2018-12-30T01:35:32.995Z,8.83
2018-12-30T01:38:19.608Z,10.63
2018-12-30T01:41:06.028Z,11.67
2018-12-30T01:43:52.437Z,11.10
2018-12-30T01:46:39.056Z,10.50
2018-12-30T01:49:25.506Z,11.53
2018-12-30T01:52:12.360Z,10.97
2018-12-30T01:54:59.000Z,13.60
2018-12-30T01:57:45.413Z,15.77
2018-12-30T02:00:31.845Z,13.67
2018-12-30T02:03:11.906Z,12.77
2018-12-30T02:05:51.377Z,17.13
2018-12-30T02:08:31.402Z,15.27
2018-12-30T02:11:10.590Z,16.43
2018-12-30T02:13:50.656Z,15.83
2018-12-30T02:16:29.836Z,11.90
2018-12-30T02:19:09.059Z,15.23
2018-12-30T02:21:49.189Z,11.33
2018-12-30T02:24:29.273Z,14.93
2018-12-30T02:27:09.349Z,13.27
2018-12-30T02:29:49.406Z,15.73
2018-12-30T02:32:16.188Z,14.80
2018-12-30T02:35:02.772Z,14.00
2018-12-30T02:37:49.160Z,13.20
2018-12-30T02:40:35.666Z,11.43
2018-12-30T02:43:22.073Z,10.53
2018-12-30T02:46:08.497Z,10.33
2018-12-30T02:48:54.900Z,13.10
2018-12-30T02:51:50.084Z,14.20
2018-12-30T02:54:30.133Z,11.80
2018-12-30T02:57:16.575Z,11.00
2018-12-30T03:00:05.177Z,10.43
2018-12-30T03:02:51.577Z,12.77
2018-12-30T03:05:40.001Z,11.93
2018-12-30T03:08:26.396Z,12.27
2018-12-30T03:11:13.217Z,10.33
2018-12-30T03:13:59.879Z,10.60
2018-12-30T03:16:46.293Z,8.83
2018-12-30T03:19:32.686Z,9.10
2018-12-30T03:22:19.318Z,8.90
2018-12-30T03:25:05.842Z,7.73
2018-12-30T03:27:52.241Z,7.00
2018-12-30T03:30:38.765Z,6.43
2018-12-30T03:33:25.420Z,6.33
2018-12-30T03:36:11.977Z,7.00
2018-12-30T03:38:58.365Z,6.53
2018-12-30T03:41:44.760Z,5.17
2018-12-30T03:44:31.193Z,6.17
2018-12-30T03:47:17.701Z,4.47
2018-12-30T03:50:04.230Z,5.07
2018-12-30T03:52:50.612Z,5.37
2018-12-30T03:55:37.472Z,4.57
2018-12-30T03:58:24.141Z,4.20
2018-12-30T04:01:10.545Z,4.30
2018-12-30T04:03:50.158Z,5.27
2018-12-30T04:06:17.363Z,4.93
2018-12-30T04:09:04.925Z,4.23
2018-12-30T04:11:51.609Z,5.37
2018-12-30T04:14:38.049Z,5.50
2018-12-30T04:17:24.554Z,5.17
2018-12-30T04:20:11.077Z,6.50
2018-12-30T04:22:57.477Z,6.67
2018-12-30T04:25:43.862Z,6.27
2018-12-30T04:28:30.258Z,6.23
2018-12-30T04:31:16.648Z,6.53
2018-12-30T04:34:03.141Z,7.30
2018-12-30T04:36:49.661Z,6.70
2018-12-30T04:39:16.432Z,8.17
2018-12-30T04:42:02.977Z,8.90
2018-12-30T04:44:49.414Z,10.37
2018-12-30T04:47:35.832Z,9.43
2018-12-30T04:50:22.241Z,8.13
2018-12-30T04:53:08.902Z,11.30
2018-12-30T04:55:55.293Z,12.27
2018-12-30T04:58:41.940Z,9.87
2018-12-30T05:01:28.336Z,10.20
2018-12-30T05:04:07.757Z,10.93
2018-12-30T05:06:46.945Z,7.23
2018-12-30T05:09:27.016Z,12.60
2018-12-30T05:12:07.128Z,10.07
2018-12-30T05:14:46.642Z,14.30
2018-12-30T05:17:26.671Z,12.33
2018-12-30T05:20:06.975Z,13.23
2018-12-30T05:22:46.585Z,11.37
2018-12-30T05:25:27.081Z,13.23
2018-12-30T05:28:06.859Z,11.13
2018-12-30T05:30:46.045Z,13.20
2018-12-30T05:33:25.254Z,11.67
2018-12-30T05:36:04.461Z,11.90
2018-12-30T05:38:31.257Z,12.90
2018-12-30T05:41:17.674Z,12.93
2018-12-30T05:44:04.074Z,11.40
2018-12-30T05:46:50.485Z,12.03
2018-12-30T05:49:37.133Z,11.80
2018-12-30T05:52:23.535Z,11.63
2018-12-30T05:55:10.050Z,12.10
2018-12-30T05:57:56.461Z,13.90
2018-12-30T06:00:43.478Z,9.60
2018-12-30T06:03:23.085Z,10.27
2018-12-30T06:06:02.545Z,10.97
2018-12-30T06:08:42.640Z,9.13
2018-12-30T06:11:22.621Z,9.40
2018-12-30T06:14:01.974Z,11.23
2018-12-30T06:16:42.104Z,9.47
2018-12-30T06:19:21.272Z,10.53
2018-12-30T06:22:01.377Z,9.10
2018-12-30T06:24:41.457Z,8.97
2018-12-30T06:27:21.516Z,10.47
2018-12-30T06:30:00.725Z,10.03
2018-12-30T06:32:40.997Z,9.03
2018-12-30T06:35:20.785Z,11.03
2018-12-30T06:38:00.147Z,9.67
2018-12-30T06:40:39.892Z,10.60
2018-12-30T06:43:19.992Z,9.93
2018-12-30T06:45:59.161Z,9.27
2018-12-30T06:48:39.494Z,12.83
2018-12-30T06:51:19.500Z,7.83
2018-12-30T06:53:59.577Z,10.43
2018-12-30T06:56:39.749Z,8.10
2018-12-30T06:59:19.746Z,7.87
2018-12-30T07:01:59.758Z,11.13
2018-12-30T07:04:38.993Z,8.77
2018-12-30T07:07:19.285Z,8.57
2018-12-30T07:09:59.160Z,9.40
2018-12-30T07:12:39.122Z,8.53
2018-12-30T07:15:19.253Z,8.80
2018-12-30T07:17:46.300Z,6.03
2018-12-30T07:20:32.941Z,8.63
2018-12-30T07:23:19.451Z,8.10
2018-12-30T07:26:06.570Z,8.63
2018-12-30T07:28:53.177Z,12.77
2018-12-30T07:31:39.701Z,9.57
2018-12-30T07:34:26.216Z,10.47
2018-12-30T07:37:12.977Z,10.47
2018-12-30T07:39:59.381Z,10.03
2018-12-30T07:42:45.819Z,9.03
2018-12-30T07:45:32.330Z,10.20
2018-12-30T07:48:18.742Z,7.23
2018-12-30T07:51:05.266Z,7.37
2018-12-30T07:53:51.949Z,7.70
2018-12-30T07:56:38.372Z,7.70
2018-12-30T07:59:06.138Z,7.23
2018-12-30T08:01:52.817Z,8.57
2018-12-30T08:04:19.984Z,10.00
2018-12-30T08:07:06.589Z,7.83
2018-12-30T08:09:52.994Z,8.77
2018-12-30T08:12:39.404Z,7.37
2018-12-30T08:15:25.808Z,10.90
2018-12-30T08:18:12.483Z,8.53
2018-12-30T08:20:59.217Z,9.43
2018-12-30T08:23:45.633Z,10.93
2018-12-30T08:26:32.320Z,7.80
2018-12-30T08:29:18.830Z,8.20
2018-12-30T08:32:05.234Z,6.43
2018-12-30T08:34:51.625Z,7.47
2018-12-30T08:37:38.277Z,8.70
2018-12-30T08:40:24.673Z,6.00
2018-12-30T08:43:11.559Z,7.70
2018-12-30T08:45:57.973Z,5.93
2018-12-30T08:48:44.624Z,8.27
2018-12-30T08:51:31.363Z,6.07
2018-12-30T08:54:17.889Z,7.80
2018-12-30T08:57:04.477Z,8.40
2018-12-30T08:59:50.903Z,9.50
2018-12-30T09:02:37.416Z,8.13
2018-12-30T09:05:17.230Z,9.10
2018-12-30T09:07:57.313Z,9.20
2018-12-30T09:10:36.658Z,11.73
2018-12-30T09:13:16.867Z,7.47
2018-12-30T09:15:56.916Z,10.70
2018-12-30T09:18:36.118Z,11.57
2018-12-30T09:21:16.119Z,8.17
2018-12-30T09:23:42.909Z,7.70
2018-12-30T09:26:29.321Z,9.47
2018-12-30T09:29:15.825Z,11.60
2018-12-30T09:32:02.358Z,9.97
2018-12-30T09:34:48.777Z,8.40
2018-12-30T09:37:35.181Z,8.77
2018-12-30T09:40:21.822Z,7.67
2018-12-30T09:43:08.777Z,7.07
2018-12-30T09:45:55.501Z,7.27
2018-12-30T09:48:41.964Z,8.00
2018-12-30T09:51:28.352Z,8.67
2018-12-30T09:54:14.965Z,6.10
2018-12-30T09:57:01.370Z,7.83
2018-12-30T09:59:47.908Z,8.43
2018-12-30T10:02:34.611Z,8.37
2018-12-30T10:05:14.566Z,10.87
2018-12-30T10:07:54.577Z,9.50
2018-12-30T10:16:35.123Z,8.97
2018-12-30T10:19:14.972Z,6.57
2018-12-30T10:21:55.042Z,6.00
2018-12-30T10:24:34.304Z,5.33
2018-12-30T10:27:14.252Z,4.83
2018-12-30T10:29:54.393Z,9.33
2018-12-30T10:32:34.545Z,6.90
2018-12-30T10:35:14.668Z,7.97
2018-12-30T10:37:41.436Z,6.63
2018-12-30T10:40:27.950Z,5.23
2018-12-30T10:43:14.346Z,5.30
2018-12-30T10:46:00.997Z,5.90
2018-12-30T10:48:47.413Z,7.43
2018-12-30T10:51:33.937Z,8.03
2018-12-30T10:54:00.960Z,8.10
2018-12-30T10:56:47.421Z,7.67
2018-12-30T10:59:34.187Z,10.50
2018-12-30T11:02:20.703Z,9.10
2018-12-30T11:05:00.026Z,7.20
2018-12-30T11:07:40.080Z,9.60
2018-12-30T11:10:20.397Z,8.73
2018-12-30T11:13:00.113Z,8.33
2018-12-30T11:15:40.181Z,9.60
2018-12-30T11:18:19.372Z,10.90
2018-12-30T11:20:58.601Z,9.23
2018-12-30T11:23:37.778Z,8.23
2018-12-30T11:26:17.973Z,5.67
2018-12-30T11:28:58.062Z,7.27
2018-12-30T11:31:37.979Z,7.10
2018-12-30T11:34:17.826Z,6.83
2018-12-30T11:36:57.929Z,6.47
2018-12-30T11:39:37.789Z,8.27
2018-12-30T11:42:17.981Z,5.17
2018-12-30T11:44:58.356Z,8.30
2018-12-30T11:47:38.904Z,5.05
2018-12-30T11:50:18.653Z,6.33
2018-12-30T11:52:58.840Z,7.07
2018-12-30T11:55:38.770Z,6.20
2018-12-30T11:58:18.952Z,8.40
2018-12-30T12:00:58.939Z,3.53
2018-12-30T12:03:38.993Z,6.10
2018-12-30T12:06:05.870Z,5.60
2018-12-30T12:08:52.371Z,8.93
2018-12-30T12:11:38.863Z,11.00
2018-12-30T12:14:25.609Z,7.13
2018-12-30T12:17:12.245Z,7.47
2018-12-30T12:19:59.158Z,6.03
2018-12-30T12:22:45.812Z,7.17
2018-12-30T12:25:32.205Z,10.90
2018-12-30T12:28:18.641Z,5.97
2018-12-30T12:31:05.045Z,9.50
2018-12-30T12:33:52.074Z,6.13
2018-12-30T12:36:18.828Z,5.37
2018-12-30T12:39:05.738Z,9.40
2018-12-30T12:41:52.161Z,6.97
2018-12-30T12:44:39.074Z,7.77
2018-12-30T12:47:25.724Z,8.23
2018-12-30T12:50:12.129Z,6.67
2018-12-30T12:52:58.522Z,7.50
2018-12-30T12:55:45.101Z,8.60
2018-12-30T12:58:31.533Z,12.90
2018-12-30T13:01:18.054Z,9.23
2018-12-30T13:03:57.318Z,8.60
2018-12-30T13:06:37.701Z,8.53
2018-12-30T13:09:17.494Z,6.63
2018-12-30T13:11:56.755Z,7.00
2018-12-30T13:14:36.911Z,6.00
2018-12-30T13:17:17.085Z,6.50
2018-12-30T13:19:57.228Z,8.10
2018-12-30T13:22:37.229Z,7.97
2018-12-30T13:25:16.441Z,10.47
2018-12-30T13:27:56.600Z,7.37
2018-12-30T13:30:36.641Z,7.43
2018-12-30T13:33:16.673Z,7.67
2018-12-30T13:35:56.790Z,8.87
2018-12-30T13:38:36.794Z,9.77
2018-12-30T13:41:16.937Z,6.00
2018-12-30T13:43:56.894Z,9.47
2018-12-30T13:46:36.997Z,7.17
2018-12-30T13:49:17.047Z,10.00
2018-12-30T13:51:56.362Z,8.77
2018-12-30T13:54:35.534Z,9.90
2018-12-30T13:57:15.666Z,8.73
2018-12-30T13:59:55.118Z,8.23
2018-12-30T14:02:35.170Z,7.63
2018-12-30T14:05:02.333Z,7.87
2018-12-30T14:07:29.157Z,7.60
2018-12-30T14:10:15.654Z,8.43
2018-12-30T14:13:02.178Z,7.67
2018-12-30T14:15:50.989Z,6.07
2018-12-30T14:18:36.954Z,8.30
2018-12-30T14:21:23.606Z,7.43
2018-12-30T14:24:10.021Z,9.50
2018-12-30T14:26:59.908Z,8.37
2018-12-30T14:29:45.133Z,7.63
2018-12-30T14:32:31.570Z,10.13
2018-12-30T14:35:18.060Z,8.87
2018-12-30T14:38:04.789Z,10.13
2018-12-30T14:40:51.210Z,7.53
2018-12-30T14:43:38.001Z,8.83
2018-12-30T14:46:24.395Z,8.17
2018-12-30T14:49:10.794Z,9.33
2018-12-30T14:51:57.460Z,9.83
2018-12-30T14:54:43.965Z,11.60
2018-12-30T14:57:30.370Z,11.73
2018-12-30T15:00:16.822Z,10.07
2018-12-30T15:03:03.325Z,9.10
2018-12-30T15:05:42.799Z,9.43
2018-12-30T15:08:22.745Z,8.33
2018-12-30T15:11:02.782Z,7.33
2018-12-30T15:13:42.866Z,11.30
2018-12-30T15:16:22.117Z,11.63
2018-12-30T15:19:02.174Z,10.33
2018-12-30T15:21:42.274Z,11.00
2018-12-30T15:24:21.693Z,14.27
2018-12-30T15:27:01.494Z,9.60
2018-12-30T15:29:41.630Z,10.60
2018-12-30T15:32:21.514Z,10.53
2018-12-30T15:35:00.717Z,10.17
2018-12-30T15:37:40.978Z,7.60
2018-12-30T15:40:20.910Z,12.60
2018-12-30T15:43:00.973Z,13.20
2018-12-30T15:45:41.022Z,9.83
2018-12-30T15:48:20.691Z,11.10
2018-12-30T15:51:00.759Z,9.83
2018-12-30T15:53:40.891Z,14.63
2018-12-30T15:56:20.921Z,11.23
2018-12-30T15:59:00.230Z,11.80
2018-12-30T16:01:40.206Z,13.33
2018-12-30T16:04:20.205Z,11.27
2018-12-30T16:06:59.421Z,11.93
2018-12-30T16:09:39.553Z,11.30
2018-12-30T16:12:19.923Z,14.27
2018-12-30T16:14:59.846Z,12.37
2018-12-30T16:17:39.930Z,14.20
2018-12-30T16:20:20.044Z,14.43
2018-12-30T16:22:59.933Z,14.07
2018-12-30T16:25:39.475Z,15.20
2018-12-30T16:28:19.993Z,12.90
2018-12-30T16:30:59.729Z,12.10
2018-12-30T16:33:39.720Z,13.93
2018-12-30T16:39:25.334Z,13.40
2018-12-30T16:42:05.211Z,11.87
2018-12-30T16:44:45.211Z,19.10
2018-12-30T16:47:25.520Z,13.87
2018-12-30T16:50:05.302Z,12.97
2018-12-30T16:52:45.487Z,14.67
2018-12-30T16:55:25.711Z,13.33
2018-12-30T16:58:05.769Z,13.03
2018-12-30T17:00:45.034Z,13.27
2018-12-30T17:03:25.048Z,16.87
2018-12-30T17:06:05.194Z,12.93
2018-12-30T17:08:44.444Z,13.20
2018-12-30T17:11:24.794Z,14.53
2018-12-30T17:14:04.634Z,14.93
2018-12-30T17:16:43.781Z,16.30
2018-12-30T17:19:24.379Z,15.07
2018-12-30T17:22:04.585Z,14.83
2018-12-30T17:24:44.554Z,13.67
2018-12-30T17:27:24.733Z,16.20
2018-12-30T17:30:04.871Z,14.03
2018-12-30T17:32:44.995Z,11.37
2018-12-30T17:35:24.909Z,11.93
2018-12-30T17:38:04.837Z,14.40
2018-12-30T17:40:38.570Z,15.07
2018-12-30T17:43:26.407Z,14.43
2018-12-30T17:46:18.234Z,11.77
2018-12-30T17:49:01.179Z,19.93
2018-12-30T17:51:47.590Z,14.73
2018-12-30T17:54:34.363Z,12.93
2018-12-30T17:57:20.790Z,11.40
2018-12-30T18:00:07.306Z,13.33
2018-12-30T18:02:54.680Z,17.23
2018-12-30T18:05:35.203Z,15.23
2018-12-30T18:08:15.492Z,15.70
2018-12-30T18:10:55.353Z,12.80
2018-12-30T18:13:35.342Z,14.23
2018-12-30T18:16:02.206Z,15.23
2018-12-30T18:18:29.049Z,11.20
2018-12-30T18:21:15.682Z,11.97
2018-12-30T18:24:02.173Z,13.93
2018-12-30T18:26:48.783Z,13.60
2018-12-30T18:29:35.190Z,14.73
2018-12-30T18:32:21.834Z,14.00
2018-12-30T18:35:08.598Z,17.43
2018-12-30T18:37:55.286Z,15.77
2018-12-30T18:40:22.653Z,20.20
2018-12-30T18:42:49.461Z,13.30
2018-12-30T18:45:35.958Z,16.23
2018-12-30T18:48:22.732Z,15.13
2018-12-30T18:50:50.138Z,17.60
2018-12-30T18:53:17.426Z,12.60
2018-12-30T18:56:06.880Z,15.57
2018-12-30T18:58:52.245Z,14.67
2018-12-30T19:01:38.775Z,14.77
2018-12-30T19:04:18.709Z,13.73
2018-12-30T19:06:58.732Z,15.93
2018-12-30T19:09:39.040Z,16.80
2018-12-30T19:12:24.986Z,17.00
2018-12-30T19:17:52.104Z,14.03
2018-12-30T19:20:32.253Z,20.30
2018-12-30T19:22:59.416Z,18.77
2018-12-30T19:25:46.088Z,16.80
2018-12-30T19:28:32.490Z,15.77
2018-12-30T19:31:19.170Z,16.77
2018-12-30T19:34:05.841Z,18.73
2018-12-30T19:36:52.893Z,16.37
2018-12-30T19:39:39.398Z,16.83
2018-12-30T19:42:26.090Z,16.53
2018-12-30T19:45:12.516Z,16.40
2018-12-30T19:47:59.154Z,16.67
2018-12-30T19:50:45.751Z,14.87
2018-12-30T19:53:32.177Z,14.87
2018-12-30T19:56:22.054Z,16.97
2018-12-30T19:59:07.498Z,15.23
2018-12-30T20:01:53.930Z,13.87
2018-12-30T20:04:40.408Z,14.00
2018-12-30T20:07:14.980Z,17.30
2018-12-30T20:09:55.279Z,17.27
2018-12-30T20:12:35.308Z,15.70
2018-12-30T20:15:15.424Z,14.93
2018-12-30T20:17:55.482Z,15.43
2018-12-30T20:20:35.602Z,16.37
2018-12-30T20:23:14.836Z,18.67
2018-12-30T20:25:55.058Z,16.83
2018-12-30T20:28:35.025Z,16.27
2018-12-30T20:31:14.626Z,17.20
2018-12-30T20:33:54.756Z,15.30
2018-12-30T20:36:34.583Z,17.30
2018-12-30T20:39:14.584Z,16.27
2018-12-30T20:41:54.157Z,18.00
2018-12-30T20:44:34.110Z,21.87
2018-12-30T20:47:14.326Z,20.43
2018-12-30T20:49:53.950Z,19.40
2018-12-30T20:52:34.002Z,17.20
2018-12-30T20:55:14.243Z,18.30
2018-12-30T20:57:54.106Z,19.17
2018-12-30T21:00:34.043Z,20.03
2018-12-30T21:03:00.861Z,16.93
2018-12-30T21:05:40.623Z,22.70
2018-12-30T21:08:20.698Z,22.80
2018-12-30T21:11:00.851Z,20.43
2018-12-30T21:13:40.444Z,15.93
2018-12-30T21:16:20.153Z,18.93
2018-12-30T21:19:02.025Z,17.70
2018-12-30T21:21:29.178Z,18.67
2018-12-30T21:24:15.911Z,20.10
2018-12-30T21:27:02.666Z,22.67
2018-12-30T21:29:29.434Z,16.97
2018-12-30T21:31:56.543Z,20.83
2018-12-30T21:34:23.540Z,20.40
2018-12-30T21:37:10.187Z,18.83
2018-12-30T21:39:57.146Z,21.90
2018-12-30T21:42:24.152Z,23.73
2018-12-30T21:45:10.815Z,21.40
2018-12-30T21:47:57.300Z,21.23
2018-12-30T21:50:43.776Z,20.27
2018-12-30T21:53:30.415Z,19.20
2018-12-30T21:56:17.295Z,17.63
2018-12-30T21:59:03.802Z,22.47
2018-12-30T22:01:50.177Z,20.43
2018-12-30T22:04:29.334Z,19.10
2018-12-30T22:07:09.465Z,20.33
2018-12-30T22:09:49.389Z,19.97
2018-12-30T22:12:29.422Z,20.37
2018-12-30T22:15:08.697Z,20.43
2018-12-30T22:17:49.092Z,22.43
2018-12-30T22:20:29.151Z,20.97
2018-12-30T22:23:09.016Z,23.93
2018-12-30T22:25:49.120Z,17.37
2018-12-30T22:28:29.080Z,19.87
2018-12-30T22:31:09.141Z,21.30
2018-12-30T22:33:49.211Z,20.67
2018-12-30T22:36:29.495Z,18.50
2018-12-30T22:39:08.989Z,19.00
2018-12-30T22:41:48.599Z,23.00
2018-12-30T22:44:28.489Z,18.90
2018-12-30T22:47:08.549Z,20.73
2018-12-30T22:49:48.756Z,23.30
2018-12-30T22:52:28.878Z,17.40
2018-12-30T22:55:08.670Z,18.80
2018-12-30T22:57:48.131Z,19.43
2018-12-30T23:00:47.551Z,18.67
2018-12-30T23:03:27.251Z,20.93
2018-12-30T23:06:07.185Z,19.73
2018-12-30T23:08:50.061Z,19.50
2018-12-30T23:11:29.209Z,18.30
2018-12-30T23:14:09.543Z,17.50
2018-12-30T23:16:49.663Z,19.03
2018-12-30T23:19:29.698Z,17.00
2018-12-30T23:22:09.498Z,18.70
2018-12-30T23:24:48.670Z,19.80
2018-12-30T23:27:29.058Z,16.40
2018-12-30T23:30:08.822Z,16.57
2018-12-30T23:32:48.978Z,18.80
2018-12-30T23:35:28.947Z,19.30
2018-12-30T23:38:08.943Z,19.40
2018-12-30T23:40:49.076Z,17.43
2018-12-30T23:43:16.141Z,17.27
2018-12-30T23:46:02.631Z,15.23
2018-12-30T23:48:49.034Z,19.30
2018-12-30T23:51:35.662Z,16.13
2018-12-30T23:54:22.202Z,16.90
2018-12-30T23:57:08.937Z,15.37
2018-12-30T23:59:55.331Z,19.03
